createdAt,value
2019-05-05T00:02:26.874Z,97681.48
2019-05-05T00:11:12.265Z,97684.19
2019-05-05T00:14:00.960Z,97684.81
2019-05-05T00:16:49.426Z,97677.37
2019-05-05T00:19:29.783Z,97683.64
2019-05-05T00:22:08.968Z,97683.07
2019-05-05T00:24:38.315Z,97681.79
2019-05-05T00:27:07.718Z,97681.77
2019-05-05T00:29:37.069Z,97684.37
2019-05-05T00:32:06.343Z,97688.38
2019-05-05T00:34:35.695Z,97688.98
2019-05-05T00:37:17.048Z,97690.31
2019-05-05T00:39:46.396Z,97695.70
2019-05-05T00:42:15.734Z,97696.25
2019-05-05T00:44:45.019Z,97704.67
2019-05-05T00:47:34.441Z,97699.14
2019-05-05T00:53:19.141Z,97706.78
2019-05-05T00:55:48.489Z,97716.95
2019-05-05T00:58:17.850Z,97708.59
2019-05-05T01:15:00.365Z,97739.15
2019-05-05T01:17:42.022Z,97747.24
2019-05-05T01:20:55.058Z,97747.98
2019-05-05T01:23:45.345Z,97744.42
2019-05-05T01:26:19.516Z,97747.38
2019-05-05T01:28:48.780Z,97753.01
2019-05-05T01:34:17.844Z,97756.88
2019-05-05T01:40:36.257Z,97753.67
2019-05-05T01:43:05.735Z,97759.72
2019-05-05T01:46:14.989Z,97766.79
2019-05-05T01:48:44.587Z,97764.95
2019-05-05T01:51:35.434Z,97760.75
2019-05-05T01:54:11.128Z,97764.44
2019-05-05T02:02:56.807Z,97766.21
2019-05-05T02:05:26.146Z,97764.20
2019-05-05T02:07:55.480Z,97765.33
2019-05-05T02:10:25.486Z,97772.08
2019-05-05T02:13:01.147Z,97761.81
2019-05-05T02:15:30.495Z,97761.47
2019-05-05T02:17:59.897Z,97757.96
2019-05-05T02:21:09.207Z,97761.04
2019-05-05T02:26:58.971Z,97765.56
2019-05-05T02:32:28.175Z,97769.48
2019-05-05T02:35:16.880Z,97771.42
2019-05-05T02:38:26.431Z,97768.89
2019-05-05T02:44:39.038Z,97780.31
2019-05-05T02:50:10.582Z,97780.55
2019-05-05T02:55:41.706Z,97789.58
2019-05-05T02:58:11.195Z,97788.84
2019-05-05T03:00:59.733Z,97791.00
2019-05-05T03:06:30.704Z,97799.36
2019-05-05T03:09:45.236Z,97802.08
2019-05-05T03:18:38.211Z,97799.52
2019-05-05T03:21:07.649Z,97802.84
2019-05-05T03:23:37.066Z,97803.86
2019-05-05T03:26:06.475Z,97806.42
2019-05-05T03:31:37.787Z,97812.69
2019-05-05T03:34:07.121Z,97811.50
2019-05-05T03:36:36.540Z,97809.59
2019-05-05T03:39:45.780Z,97818.44
2019-05-05T03:48:15.991Z,97822.41
2019-05-05T03:50:45.331Z,97831.55
2019-05-05T03:53:54.580Z,97827.50
2019-05-05T03:59:58.349Z,97830.72
2019-05-05T04:02:46.805Z,97837.52
2019-05-05T04:05:35.256Z,97832.02
2019-05-05T04:08:04.582Z,97829.92
2019-05-05T04:11:14.356Z,97823.18
2019-05-05T04:13:43.852Z,97818.31
2019-05-05T04:16:34.180Z,97827.74
2019-05-05T04:22:04.396Z,97828.93
2019-05-05T04:24:34.254Z,97832.84
2019-05-05T04:27:24.033Z,97836.88
2019-05-05T04:29:54.479Z,97831.30
2019-05-05T04:32:44.005Z,97828.16
2019-05-05T04:35:20.337Z,97831.14
2019-05-05T04:37:49.684Z,97829.70
2019-05-05T04:40:19.338Z,97835.57
2019-05-05T04:42:48.608Z,97828.95
2019-05-05T04:45:18.020Z,97837.36
2019-05-05T04:50:46.708Z,97841.28
2019-05-05T04:53:35.156Z,97840.97
2019-05-05T04:56:04.584Z,97842.44
2019-05-05T04:58:33.982Z,97844.87
2019-05-05T05:01:04.687Z,97839.03
2019-05-05T05:04:13.776Z,97852.48
2019-05-05T05:07:08.997Z,97851.23
2019-05-05T05:09:38.330Z,97851.94
2019-05-05T05:12:07.622Z,97864.95
2019-05-05T05:14:57.383Z,97855.26
2019-05-05T05:20:15.545Z,97867.18
2019-05-05T05:22:44.879Z,97865.88
2019-05-05T05:25:14.219Z,97868.95
2019-05-05T05:28:04.245Z,97879.80
2019-05-05T05:30:43.900Z,97879.51
2019-05-05T05:33:19.138Z,97886.77
2019-05-05T05:35:48.419Z,97886.42
2019-05-05T05:38:17.756Z,97896.59
2019-05-05T05:41:06.219Z,97890.91
2019-05-05T05:46:35.069Z,97905.98
2019-05-05T05:49:24.162Z,97914.42
2019-05-05T05:51:53.892Z,97916.88
2019-05-05T05:54:44.210Z,97929.30
2019-05-05T05:57:24.150Z,97941.33
2019-05-05T05:59:54.836Z,97942.44
2019-05-05T06:02:29.611Z,97943.23
2019-05-05T06:04:58.953Z,97939.96
2019-05-05T06:07:28.218Z,97943.27
2019-05-05T06:09:57.558Z,97949.08
2019-05-05T06:12:26.819Z,97951.79
2019-05-05T06:14:56.440Z,97950.05
2019-05-05T06:17:25.782Z,97954.68
2019-05-05T06:19:55.127Z,97960.82
2019-05-05T06:22:29.388Z,97956.33
2019-05-05T06:28:06.737Z,97964.47
2019-05-05T06:30:36.084Z,97961.62
2019-05-05T06:33:05.422Z,97971.83
2019-05-05T06:35:36.412Z,97970.95
2019-05-05T06:38:04.939Z,97973.85
2019-05-05T06:48:48.927Z,97980.93
2019-05-05T06:51:18.280Z,97986.75
2019-05-05T06:53:47.615Z,97984.30
2019-05-05T06:56:16.967Z,97988.24
2019-05-05T06:58:58.758Z,97982.99
2019-05-05T07:01:28.090Z,97985.19
2019-05-05T07:03:57.428Z,97991.17
2019-05-05T07:06:26.761Z,97992.50
2019-05-05T07:08:56.411Z,97998.37
2019-05-05T07:11:25.799Z,98001.80
2019-05-05T07:13:55.082Z,98001.83
2019-05-05T07:16:24.531Z,98010.85
2019-05-05T07:18:54.087Z,98008.80
2019-05-05T07:21:44.033Z,98012.17
2019-05-05T07:24:14.567Z,98016.33
2019-05-05T07:27:44.224Z,98023.39
2019-05-05T07:30:19.642Z,98031.23
2019-05-05T07:32:54.889Z,98028.48
2019-05-05T07:38:33.831Z,98036.69
2019-05-05T07:41:14.132Z,98033.69
2019-05-05T07:43:49.710Z,98041.87
2019-05-05T07:46:19.054Z,98043.27
2019-05-05T07:48:48.412Z,98048.76
2019-05-05T07:51:17.679Z,98053.88
2019-05-05T07:53:47.019Z,98056.69
2019-05-05T07:56:16.373Z,98058.67
2019-05-05T07:58:45.784Z,98067.48
2019-05-05T08:01:15.125Z,98075.17
2019-05-05T08:03:44.744Z,98075.01
2019-05-05T08:06:20.658Z,98080.84
2019-05-05T08:08:49.996Z,98086.27
2019-05-05T08:11:19.334Z,98086.32
2019-05-05T08:14:08.023Z,98077.48
2019-05-05T08:16:58.115Z,98075.55
2019-05-05T08:19:46.574Z,98076.31
2019-05-05T08:22:15.905Z,98079.12
2019-05-05T08:25:04.379Z,98093.98
2019-05-05T08:27:53.726Z,98079.46
2019-05-05T08:31:03.917Z,98079.61
2019-05-05T08:33:39.101Z,98084.30
2019-05-05T08:36:14.664Z,98076.80
2019-05-05T08:38:50.257Z,98079.28
2019-05-05T08:41:19.588Z,98080.21
2019-05-05T08:43:48.841Z,98077.87
2019-05-05T08:46:18.242Z,98073.54
2019-05-05T08:48:47.573Z,98078.39
2019-05-05T08:51:28.919Z,98079.45
2019-05-05T08:53:58.262Z,98074.78
2019-05-05T08:56:46.874Z,98079.05
2019-05-05T08:59:16.198Z,98071.25
2019-05-05T09:01:45.532Z,98073.78
2019-05-05T09:04:14.871Z,98071.03
2019-05-05T09:06:44.202Z,98071.16
2019-05-05T09:09:15.168Z,98076.31
2019-05-05T09:12:04.590Z,98077.30
2019-05-05T09:14:40.781Z,98069.95
2019-05-05T09:17:10.109Z,98067.00
2019-05-05T09:19:39.684Z,98060.78
2019-05-05T09:22:09.014Z,98055.66
2019-05-05T09:24:57.474Z,98049.34
2019-05-05T09:27:45.913Z,98053.14
2019-05-05T09:33:49.442Z,98043.80
2019-05-05T09:36:18.788Z,98037.77
2019-05-05T09:38:49.831Z,98035.75
2019-05-05T09:41:19.166Z,98029.16
2019-05-05T09:43:48.484Z,98038.20
2019-05-05T09:46:17.945Z,98046.69
2019-05-05T09:48:47.274Z,98043.70
2019-05-05T09:51:16.593Z,98051.94
2019-05-05T09:53:45.910Z,98045.05
2019-05-05T09:56:15.223Z,98048.96
2019-05-05T09:58:44.794Z,98050.72
2019-05-05T10:01:33.942Z,98050.06
2019-05-05T10:04:54.704Z,98056.85
2019-05-05T10:07:30.074Z,98057.03
2019-05-05T10:09:59.408Z,98053.03
2019-05-05T10:12:28.725Z,98062.72
2019-05-05T10:14:58.049Z,98065.59
2019-05-05T10:17:27.380Z,98064.23
2019-05-05T10:19:56.733Z,98065.16
2019-05-05T10:22:26.059Z,98067.84
2019-05-05T10:27:51.049Z,98064.03
2019-05-05T10:30:20.438Z,98073.25
2019-05-05T10:32:49.763Z,98065.72
2019-05-05T10:35:19.155Z,98062.16
2019-05-05T10:37:54.585Z,98066.89
2019-05-05T10:40:49.899Z,98071.30
2019-05-05T10:43:20.856Z,98060.03
2019-05-05T10:45:50.182Z,98062.66
2019-05-05T10:48:19.497Z,98063.69
2019-05-05T10:50:48.828Z,98065.30
2019-05-05T10:53:18.143Z,98065.50
2019-05-05T10:55:47.463Z,98063.61
2019-05-05T10:58:16.801Z,98067.80
2019-05-05T11:03:47.628Z,98075.55
2019-05-05T11:09:29.425Z,98067.27
2019-05-05T11:11:58.737Z,98061.41
2019-05-05T11:14:28.063Z,98064.42
2019-05-05T11:16:57.380Z,98066.32
2019-05-05T11:19:33.623Z,98062.63
2019-05-05T11:22:09.407Z,98059.32
2019-05-05T11:24:38.736Z,98068.44
2019-05-05T11:27:08.055Z,98069.31
2019-05-05T11:30:08.464Z,98079.89
2019-05-05T11:32:57.137Z,98068.91
2019-05-05T11:35:45.589Z,98071.73
2019-05-05T11:38:15.073Z,98067.64
2019-05-05T11:40:44.356Z,98065.61
2019-05-05T11:43:14.290Z,98064.39
2019-05-05T11:45:50.572Z,98068.53
2019-05-05T11:48:19.902Z,98076.09
2019-05-05T11:53:50.816Z,98079.89
2019-05-05T11:56:20.075Z,98078.50
2019-05-05T11:58:49.411Z,98076.52
2019-05-05T12:01:18.722Z,98086.52
2019-05-05T12:03:47.971Z,98080.91
2019-05-05T12:06:17.579Z,98087.27
2019-05-05T12:08:46.899Z,98083.30
2019-05-05T12:11:16.231Z,98082.56
2019-05-05T12:13:45.560Z,98083.85
2019-05-05T12:21:51.580Z,98078.59
2019-05-05T12:32:38.581Z,98077.45
2019-05-05T12:35:07.889Z,98080.16
2019-05-05T12:37:37.220Z,98078.68
2019-05-05T12:40:14.319Z,98083.31
2019-05-05T12:42:54.334Z,98075.69
2019-05-05T12:48:44.067Z,98085.40
2019-05-05T12:51:14.734Z,98073.92
2019-05-05T12:54:04.497Z,98075.00
2019-05-05T12:56:40.183Z,98067.94
2019-05-05T13:01:49.195Z,98070.28
2019-05-05T13:04:18.673Z,98076.06
2019-05-05T13:06:48.314Z,98068.26
2019-05-05T13:09:36.963Z,98072.45
2019-05-05T13:12:06.352Z,98070.41
2019-05-05T13:14:35.722Z,98061.15
2019-05-05T13:17:05.055Z,98063.35
2019-05-05T13:25:29.549Z,98062.38
2019-05-05T13:27:58.937Z,98061.70
2019-05-05T13:30:28.277Z,98056.06
2019-05-05T13:32:57.906Z,98052.89
2019-05-05T13:35:34.095Z,98054.20
2019-05-05T13:38:10.228Z,98053.27
2019-05-05T13:40:45.443Z,98052.55
2019-05-05T13:43:15.094Z,98047.37
2019-05-05T13:46:03.536Z,98053.44
2019-05-05T13:48:33.779Z,98054.79
2019-05-05T13:51:24.016Z,98056.09
2019-05-05T13:53:59.891Z,98060.13
2019-05-05T13:56:29.243Z,98056.87
2019-05-05T13:58:58.573Z,98056.19
2019-05-05T14:01:27.909Z,98052.60
2019-05-05T14:03:57.768Z,98057.95
2019-05-05T14:06:33.835Z,98051.76
2019-05-05T14:12:14.488Z,98036.80
2019-05-05T14:14:54.617Z,98039.16
2019-05-05T14:17:29.435Z,98040.63
2019-05-05T14:20:05.173Z,98036.88
2019-05-05T14:22:51.262Z,98025.77
2019-05-05T14:25:47.945Z,98021.93
2019-05-05T14:28:18.274Z,98023.21
2019-05-05T14:37:04.864Z,98028.30
2019-05-05T14:39:54.527Z,98028.23
2019-05-05T14:42:29.511Z,98021.41
2019-05-05T14:48:07.100Z,98030.20
2019-05-05T14:50:36.416Z,98025.22
2019-05-05T14:53:05.746Z,98020.42
2019-05-05T14:55:35.066Z,98013.88
2019-05-05T14:58:04.389Z,98024.78
2019-05-05T15:00:33.841Z,98030.42
2019-05-05T15:03:03.700Z,98022.38
2019-05-05T15:08:54.443Z,98037.36
2019-05-05T15:12:03.749Z,98034.28
2019-05-05T15:14:54.485Z,98035.03
2019-05-05T15:17:28.424Z,98037.41
2019-05-05T15:19:57.742Z,98035.66
2019-05-05T15:22:27.060Z,98036.33
2019-05-05T15:24:56.386Z,98033.17
2019-05-05T15:27:25.700Z,98028.14
2019-05-05T15:29:55.038Z,98027.28
2019-05-05T15:32:24.360Z,98030.69
2019-05-05T15:34:54.510Z,98031.45
2019-05-05T15:37:43.797Z,98029.02
2019-05-05T15:43:27.721Z,98031.94
2019-05-05T15:45:57.045Z,98033.53
2019-05-05T15:48:26.365Z,98033.84
2019-05-05T15:50:55.702Z,98032.92
2019-05-05T15:53:25.018Z,98036.73
2019-05-05T15:55:54.350Z,98044.00
2019-05-05T15:58:43.540Z,98047.08
2019-05-05T16:01:19.648Z,98046.66
2019-05-05T16:03:49.273Z,98042.25
2019-05-05T16:06:18.592Z,98054.31
2019-05-05T16:08:48.223Z,98054.08
2019-05-05T16:11:17.544Z,98048.19
2019-05-05T16:13:46.856Z,98053.10
2019-05-05T16:16:35.300Z,98053.73
2019-05-05T16:19:24.750Z,98059.87
2019-05-05T16:22:34.691Z,98060.94
2019-05-05T16:28:05.575Z,98076.18
2019-05-05T16:30:41.669Z,98060.20
2019-05-05T16:33:10.993Z,98061.06
2019-05-05T16:35:40.623Z,98066.75
2019-05-05T16:38:09.946Z,98060.11
2019-05-05T16:40:39.265Z,98059.42
2019-05-05T16:43:21.235Z,98061.30
2019-05-05T16:45:50.565Z,98058.63
2019-05-05T16:48:19.948Z,98059.91
2019-05-05T16:50:49.269Z,98062.30
2019-05-05T16:53:37.722Z,98062.45
2019-05-05T16:56:26.408Z,98065.55
2019-05-05T16:58:55.737Z,98070.13
2019-05-05T17:01:25.054Z,98065.39
2019-05-05T17:03:54.380Z,98069.20
2019-05-05T17:06:24.416Z,98065.99
2019-05-05T17:09:14.976Z,98071.88
2019-05-05T17:12:24.328Z,98076.18
2019-05-05T17:15:18.370Z,98074.50
2019-05-05T17:18:32.330Z,98070.42
2019-05-05T17:21:09.666Z,98077.02
2019-05-05T17:23:39.000Z,98078.67
2019-05-05T17:26:08.347Z,98078.30
2019-05-05T17:28:37.685Z,98077.30
2019-05-05T17:31:07.074Z,98080.64
2019-05-05T17:33:38.516Z,98079.68
2019-05-05T17:36:14.015Z,98089.17
2019-05-05T17:38:49.331Z,98081.70
2019-05-05T17:41:37.787Z,98084.82
2019-05-05T17:44:26.223Z,98081.44
2019-05-05T17:47:14.666Z,98091.06
2019-05-05T17:50:04.135Z,98093.71
2019-05-05T17:52:58.902Z,98090.13
2019-05-05T17:58:37.321Z,98092.05
2019-05-05T18:01:06.636Z,98094.17
2019-05-05T18:03:35.956Z,98097.59
2019-05-05T18:06:24.456Z,98098.58
2019-05-05T18:09:14.070Z,98100.46
2019-05-05T18:12:08.469Z,98101.38
2019-05-05T18:17:18.606Z,98102.80
2019-05-05T18:19:47.931Z,98096.60
2019-05-05T18:22:17.266Z,98105.72
2019-05-05T18:24:48.232Z,98098.65
2019-05-05T18:27:17.599Z,98099.98
2019-05-05T18:29:46.921Z,98107.86
2019-05-05T18:32:16.240Z,98100.58
2019-05-05T18:34:45.576Z,98112.94
2019-05-05T18:37:14.953Z,98111.84
2019-05-05T18:39:44.294Z,98117.51
2019-05-05T18:45:28.448Z,98123.78
2019-05-05T18:47:57.766Z,98127.35
2019-05-05T18:50:33.953Z,98124.41
2019-05-05T18:53:08.999Z,98127.55
2019-05-05T18:55:38.394Z,98123.98
2019-05-05T18:58:26.237Z,98128.77
2019-05-05T19:01:13.483Z,98135.38
2019-05-05T19:06:57.556Z,98134.53
2019-05-05T19:09:26.877Z,98137.13
2019-05-05T19:11:56.277Z,98139.95
2019-05-05T19:14:25.595Z,98139.27
2019-05-05T19:16:55.751Z,98142.30
2019-05-05T19:25:28.941Z,98146.98
2019-05-05T19:27:58.284Z,98146.62
2019-05-05T19:30:27.736Z,98151.95
2019-05-05T19:32:57.054Z,98153.75
2019-05-05T19:35:40.653Z,98158.56
2019-05-05T19:38:04.950Z,98158.81
2019-05-05T19:40:43.518Z,98160.34
2019-05-05T19:43:14.014Z,98161.45
2019-05-05T19:45:48.963Z,98162.95
2019-05-05T19:48:18.277Z,98164.87
2019-05-05T19:56:07.358Z,98167.25
2019-05-05T19:58:36.763Z,98165.66
2019-05-05T20:01:06.029Z,98165.34
2019-05-05T20:03:35.636Z,98168.30
2019-05-05T20:06:25.465Z,98164.25
2019-05-05T20:08:54.787Z,98165.09
2019-05-05T20:11:24.803Z,98166.52
2019-05-05T20:14:15.223Z,98164.66
2019-05-05T20:17:14.801Z,98164.09
2019-05-05T20:20:09.657Z,98166.72
2019-05-05T20:22:38.992Z,98164.98
2019-05-05T20:28:31.086Z,98162.98
2019-05-05T20:31:00.447Z,98157.23
2019-05-05T20:33:48.916Z,98156.13
2019-05-05T20:38:58.579Z,98154.52
2019-05-05T20:41:27.917Z,98167.42
2019-05-05T20:43:57.228Z,98165.33
2019-05-05T20:46:26.573Z,98168.97
2019-05-05T20:48:55.919Z,98166.57
2019-05-05T20:51:25.465Z,98161.80
2019-05-05T20:53:54.961Z,98160.08
2019-05-05T20:56:24.277Z,98152.72
2019-05-05T20:58:54.905Z,98154.78
2019-05-05T21:01:30.125Z,98158.58
2019-05-05T21:03:59.470Z,98159.07
2019-05-05T21:06:28.802Z,98155.73
2019-05-05T21:08:58.133Z,98150.02
2019-05-05T21:11:27.472Z,98155.07
2019-05-05T21:13:56.870Z,98146.54
2019-05-05T21:16:26.643Z,98150.44
2019-05-05T21:18:57.536Z,98149.42
2019-05-05T21:24:14.427Z,98151.77
2019-05-05T21:27:04.257Z,98146.20
2019-05-05T21:29:54.389Z,98146.50
2019-05-05T21:32:34.075Z,98141.34
2019-05-05T21:35:14.490Z,98148.85
2019-05-05T21:37:44.871Z,98146.16
2019-05-05T21:40:34.714Z,98141.16
2019-05-05T21:43:10.392Z,98146.67
2019-05-05T21:45:39.734Z,98143.78
2019-05-05T21:48:09.066Z,98145.31
2019-05-05T21:50:57.527Z,98139.31
2019-05-05T21:53:46.054Z,98151.24
2019-05-05T21:56:34.522Z,98148.44
2019-05-05T21:59:04.230Z,98152.98
2019-05-05T22:04:15.093Z,98147.80
2019-05-05T22:07:04.337Z,98152.30
2019-05-05T22:09:33.690Z,98155.79
2019-05-05T22:12:04.198Z,98147.27
2019-05-05T22:14:55.101Z,98160.28
2019-05-05T22:17:29.803Z,98157.20
2019-05-05T22:22:54.691Z,98157.94
2019-05-05T22:25:24.025Z,98164.56
2019-05-05T22:27:54.519Z,98158.41
2019-05-05T22:30:29.869Z,98155.81
2019-05-05T22:32:59.211Z,98157.16
2019-05-05T22:35:28.543Z,98155.58
2019-05-05T22:38:10.595Z,98160.00
2019-05-05T22:40:39.924Z,98152.25
2019-05-05T22:43:09.585Z,98161.09
2019-05-05T22:45:38.934Z,98162.73
2019-05-05T22:48:08.259Z,98157.29
2019-05-05T22:50:37.517Z,98160.00
2019-05-05T22:53:06.864Z,98160.31
2019-05-05T22:55:48.071Z,98161.44
2019-05-05T22:58:17.389Z,98153.29
2019-05-05T23:00:46.720Z,98160.95
2019-05-05T23:03:35.181Z,98159.00
2019-05-05T23:06:24.660Z,98157.89
2019-05-05T23:08:54.626Z,98160.94
2019-05-05T23:11:30.481Z,98159.95
2019-05-05T23:14:18.946Z,98160.02
2019-05-05T23:23:04.714Z,98159.50
2019-05-05T23:28:36.230Z,98166.97
2019-05-05T23:31:05.650Z,98162.59
2019-05-05T23:33:34.984Z,98163.17
2019-05-05T23:36:04.339Z,98167.45
2019-05-05T23:38:34.774Z,98167.70
2019-05-05T23:41:10.290Z,98166.67
2019-05-05T23:43:39.631Z,98166.34
2019-05-05T23:46:08.963Z,98163.47
2019-05-05T23:48:38.233Z,98160.22
2019-05-05T23:51:07.503Z,98160.03
2019-05-05T23:53:36.839Z,98164.36
2019-05-05T23:56:06.501Z,98163.08
2019-05-05T23:58:35.831Z,98155.15
